sensor_id;sensor_type;location;lat;lon;timestamp;P1;durP1;ratioP1;P2;durP2;ratioP2
66112;SDS011;52893;52.870;5.822;2023-04-25T00:00:13;19.00;;;2.75;;
66112;SDS011;52893;52.870;5.822;2023-04-25T00:02:41;15.45;;;2.72;;
66112;SDS011;52893;52.870;5.822;2023-04-25T00:05:09;19.95;;;2.53;;
66112;SDS011;52893;52.870;5.822;2023-04-25T00:07:37;11.88;;;2.30;;
66112;SDS011;52893;52.870;5.822;2023-04-25T00:10:05;14.82;;;2.42;;
66112;SDS011;52893;52.870;5.822;2023-04-25T00:12:34;16.25;;;2.67;;
66112;SDS011;52893;52.870;5.822;2023-04-25T00:15:01;16.38;;;2.40;;
66112;SDS011;52893;52.870;5.822;2023-04-25T00:17:31;13.52;;;2.35;;
66112;SDS011;52893;52.870;5.822;2023-04-25T00:19:58;24.40;;;2.88;;
66112;SDS011;52893;52.870;5.822;2023-04-25T00:22:26;16.63;;;2.53;;
66112;SDS011;52893;52.870;5.822;2023-04-25T00:24:53;12.07;;;2.53;;
66112;SDS011;52893;52.870;5.822;2023-04-25T00:27:22;22.17;;;2.33;;
66112;SDS011;52893;52.870;5.822;2023-04-25T00:29:50;15.20;;;2.17;;
66112;SDS011;52893;52.870;5.822;2023-04-25T00:32:17;19.83;;;1.85;;
66112;SDS011;52893;52.870;5.822;2023-04-25T00:34:46;20.30;;;2.25;;
66112;SDS011;52893;52.870;5.822;2023-04-25T00:37:13;13.02;;;2.38;;
66112;SDS011;52893;52.870;5.822;2023-04-25T00:39:41;17.45;;;2.45;;
66112;SDS011;52893;52.870;5.822;2023-04-25T00:42:08;19.85;;;2.35;;
66112;SDS011;52893;52.870;5.822;2023-04-25T00:44:35;11.00;;;2.83;;
66112;SDS011;52893;52.870;5.822;2023-04-25T00:47:03;15.93;;;2.08;;
66112;SDS011;52893;52.870;5.822;2023-04-25T00:49:31;16.52;;;2.72;;
66112;SDS011;52893;52.870;5.822;2023-04-25T00:52:00;22.38;;;3.08;;
66112;SDS011;52893;52.870;5.822;2023-04-25T00:54:28;12.45;;;2.33;;
66112;SDS011;52893;52.870;5.822;2023-04-25T00:56:57;13.80;;;2.40;;
66112;SDS011;52893;52.870;5.822;2023-04-25T00:59:24;12.52;;;2.20;;
66112;SDS011;52893;52.870;5.822;2023-04-25T01:01:53;11.68;;;2.08;;
66112;SDS011;52893;52.870;5.822;2023-04-25T01:04:20;18.52;;;2.42;;
66112;SDS011;52893;52.870;5.822;2023-04-25T01:06:48;9.60;;;2.67;;
66112;SDS011;52893;52.870;5.822;2023-04-25T01:09:17;17.40;;;2.47;;
66112;SDS011;52893;52.870;5.822;2023-04-25T01:11:45;17.92;;;2.17;;
66112;SDS011;52893;52.870;5.822;2023-04-25T01:14:12;16.42;;;2.13;;
66112;SDS011;52893;52.870;5.822;2023-04-25T01:16:40;16.88;;;2.10;;
66112;SDS011;52893;52.870;5.822;2023-04-25T01:19:09;20.55;;;2.20;;
66112;SDS011;52893;52.870;5.822;2023-04-25T01:21:39;14.27;;;2.63;;
66112;SDS011;52893;52.870;5.822;2023-04-25T01:24:06;27.80;;;2.83;;
66112;SDS011;52893;52.870;5.822;2023-04-25T01:26:34;17.83;;;2.35;;
66112;SDS011;52893;52.870;5.822;2023-04-25T01:29:04;24.88;;;2.25;;
66112;SDS011;52893;52.870;5.822;2023-04-25T01:31:31;20.65;;;1.98;;
66112;SDS011;52893;52.870;5.822;2023-04-25T01:33:59;13.68;;;1.63;;
66112;SDS011;52893;52.870;5.822;2023-04-25T01:36:28;17.23;;;2.15;;
66112;SDS011;52893;52.870;5.822;2023-04-25T01:38:58;7.28;;;1.45;;
66112;SDS011;52893;52.870;5.822;2023-04-25T01:41:26;11.25;;;1.58;;
66112;SDS011;52893;52.870;5.822;2023-04-25T01:43:54;9.98;;;1.70;;
66112;SDS011;52893;52.870;5.822;2023-04-25T01:46:23;15.15;;;1.85;;
66112;SDS011;52893;52.870;5.822;2023-04-25T01:48:51;11.13;;;1.63;;
66112;SDS011;52893;52.870;5.822;2023-04-25T01:51:18;10.05;;;1.45;;
66112;SDS011;52893;52.870;5.822;2023-04-25T01:53:46;9.40;;;2.10;;
66112;SDS011;52893;52.870;5.822;2023-04-25T01:56:15;14.85;;;1.77;;
66112;SDS011;52893;52.870;5.822;2023-04-25T01:58:45;9.88;;;1.77;;
66112;SDS011;52893;52.870;5.822;2023-04-25T02:01:30;15.35;;;2.17;;
66112;SDS011;52893;52.870;5.822;2023-04-25T02:04:14;14.73;;;1.75;;
66112;SDS011;52893;52.870;5.822;2023-04-25T02:06:43;8.55;;;1.17;;
66112;SDS011;52893;52.870;5.822;2023-04-25T02:09:11;11.73;;;1.98;;
66112;SDS011;52893;52.870;5.822;2023-04-25T02:11:45;12.77;;;1.88;;
66112;SDS011;52893;52.870;5.822;2023-04-25T02:14:39;17.77;;;1.75;;
66112;SDS011;52893;52.870;5.822;2023-04-25T02:17:14;14.00;;;2.22;;
66112;SDS011;52893;52.870;5.822;2023-04-25T02:19:41;15.23;;;1.40;;
66112;SDS011;52893;52.870;5.822;2023-04-25T02:22:09;8.68;;;1.65;;
66112;SDS011;52893;52.870;5.822;2023-04-25T02:24:36;14.32;;;1.80;;
66112;SDS011;52893;52.870;5.822;2023-04-25T02:27:05;10.85;;;1.60;;
66112;SDS011;52893;52.870;5.822;2023-04-25T02:29:34;11.90;;;1.38;;
66112;SDS011;52893;52.870;5.822;2023-04-25T02:32:02;12.90;;;1.67;;
66112;SDS011;52893;52.870;5.822;2023-04-25T02:34:29;12.80;;;2.00;;
66112;SDS011;52893;52.870;5.822;2023-04-25T02:37:00;16.98;;;1.25;;
66112;SDS011;52893;52.870;5.822;2023-04-25T02:39:28;12.00;;;1.33;;
66112;SDS011;52893;52.870;5.822;2023-04-25T02:41:55;4.50;;;1.25;;
66112;SDS011;52893;52.870;5.822;2023-04-25T02:44:24;9.25;;;1.35;;
66112;SDS011;52893;52.870;5.822;2023-04-25T02:46:51;8.38;;;0.93;;
66112;SDS011;52893;52.870;5.822;2023-04-25T02:49:19;5.65;;;1.20;;
66112;SDS011;52893;52.870;5.822;2023-04-25T02:51:46;8.85;;;1.27;;
66112;SDS011;52893;52.870;5.822;2023-04-25T02:54:14;17.83;;;1.55;;
66112;SDS011;52893;52.870;5.822;2023-04-25T02:56:44;7.75;;;1.00;;
66112;SDS011;52893;52.870;5.822;2023-04-25T02:59:17;9.05;;;1.58;;
66112;SDS011;52893;52.870;5.822;2023-04-25T03:01:46;6.45;;;1.30;;
66112;SDS011;52893;52.870;5.822;2023-04-25T03:04:14;15.38;;;1.98;;
66112;SDS011;52893;52.870;5.822;2023-04-25T03:06:41;13.38;;;1.42;;
66112;SDS011;52893;52.870;5.822;2023-04-25T03:09:08;11.43;;;2.08;;
66112;SDS011;52893;52.870;5.822;2023-04-25T03:11:36;8.25;;;1.17;;
66112;SDS011;52893;52.870;5.822;2023-04-25T03:14:05;8.13;;;1.60;;
66112;SDS011;52893;52.870;5.822;2023-04-25T03:16:33;16.48;;;1.58;;
66112;SDS011;52893;52.870;5.822;2023-04-25T03:19:02;9.00;;;1.40;;
66112;SDS011;52893;52.870;5.822;2023-04-25T03:21:31;11.60;;;1.65;;
66112;SDS011;52893;52.870;5.822;2023-04-25T03:24:00;10.35;;;1.83;;
66112;SDS011;52893;52.870;5.822;2023-04-25T03:26:29;10.50;;;1.77;;
66112;SDS011;52893;52.870;5.822;2023-04-25T03:28:56;8.90;;;1.00;;
66112;SDS011;52893;52.870;5.822;2023-04-25T03:31:24;16.45;;;1.50;;
66112;SDS011;52893;52.870;5.822;2023-04-25T03:33:51;15.35;;;1.27;;
66112;SDS011;52893;52.870;5.822;2023-04-25T03:36:23;10.30;;;1.55;;
66112;SDS011;52893;52.870;5.822;2023-04-25T03:38:50;8.63;;;1.58;;
66112;SDS011;52893;52.870;5.822;2023-04-25T03:41:20;15.50;;;1.65;;
66112;SDS011;52893;52.870;5.822;2023-04-25T03:43:52;11.80;;;0.90;;
66112;SDS011;52893;52.870;5.822;2023-04-25T03:46:20;5.68;;;1.60;;
66112;SDS011;52893;52.870;5.822;2023-04-25T03:48:48;5.75;;;1.05;;
66112;SDS011;52893;52.870;5.822;2023-04-25T03:51:31;8.02;;;1.42;;
66112;SDS011;52893;52.870;5.822;2023-04-25T03:54:00;11.77;;;1.38;;
66112;SDS011;52893;52.870;5.822;2023-04-25T03:56:31;7.78;;;1.33;;
66112;SDS011;52893;52.870;5.822;2023-04-25T03:59:07;12.35;;;1.42;;
66112;SDS011;52893;52.870;5.822;2023-04-25T04:01:35;15.93;;;1.20;;
66112;SDS011;52893;52.870;5.822;2023-04-25T04:04:03;6.88;;;1.48;;
66112;SDS011;52893;52.870;5.822;2023-04-25T04:06:32;7.25;;;1.35;;
66112;SDS011;52893;52.870;5.822;2023-04-25T04:09:11;14.63;;;1.40;;
66112;SDS011;52893;52.870;5.822;2023-04-25T04:11:43;8.27;;;1.17;;
66112;SDS011;52893;52.870;5.822;2023-04-25T04:14:11;13.98;;;1.67;;
66112;SDS011;52893;52.870;5.822;2023-04-25T04:17:00;14.02;;;1.58;;
66112;SDS011;52893;52.870;5.822;2023-04-25T04:19:35;9.57;;;1.58;;
66112;SDS011;52893;52.870;5.822;2023-04-25T04:22:10;10.40;;;1.48;;
66112;SDS011;52893;52.870;5.822;2023-04-25T04:24:39;13.13;;;1.45;;
66112;SDS011;52893;52.870;5.822;2023-04-25T04:27:10;12.73;;;1.30;;
66112;SDS011;52893;52.870;5.822;2023-04-25T04:29:46;7.90;;;1.13;;
66112;SDS011;52893;52.870;5.822;2023-04-25T04:34:49;9.98;;;1.88;;
66112;SDS011;52893;52.870;5.822;2023-04-25T04:37:21;8.10;;;1.60;;
66112;SDS011;52893;52.870;5.822;2023-04-25T04:39:48;6.85;;;1.08;;
66112;SDS011;52893;52.870;5.822;2023-04-25T04:42:36;7.22;;;1.20;;
66112;SDS011;52893;52.870;5.822;2023-04-25T04:45:30;7.78;;;1.48;;
66112;SDS011;52893;52.870;5.822;2023-04-25T04:48:21;6.32;;;1.35;;
66112;SDS011;52893;52.870;5.822;2023-04-25T04:51:16;8.63;;;1.38;;
66112;SDS011;52893;52.870;5.822;2023-04-25T04:54:03;11.77;;;0.93;;
66112;SDS011;52893;52.870;5.822;2023-04-25T04:57:03;7.78;;;1.42;;
66112;SDS011;52893;52.870;5.822;2023-04-25T04:59:49;10.80;;;1.27;;
66112;SDS011;52893;52.870;5.822;2023-04-25T05:02:45;11.20;;;1.17;;
66112;SDS011;52893;52.870;5.822;2023-04-25T05:05:29;13.77;;;1.27;;
66112;SDS011;52893;52.870;5.822;2023-04-25T05:08:32;6.88;;;0.95;;
66112;SDS011;52893;52.870;5.822;2023-04-25T05:11:27;4.80;;;1.00;;
66112;SDS011;52893;52.870;5.822;2023-04-25T05:14:13;4.25;;;1.13;;
66112;SDS011;52893;52.870;5.822;2023-04-25T05:16:46;9.30;;;1.10;;
66112;SDS011;52893;52.870;5.822;2023-04-25T05:19:24;7.93;;;1.15;;
66112;SDS011;52893;52.870;5.822;2023-04-25T05:22:12;9.85;;;0.93;;
66112;SDS011;52893;52.870;5.822;2023-04-25T05:24:54;7.67;;;1.10;;
66112;SDS011;52893;52.870;5.822;2023-04-25T05:27:38;9.07;;;1.45;;
66112;SDS011;52893;52.870;5.822;2023-04-25T05:30:15;4.90;;;0.90;;
66112;SDS011;52893;52.870;5.822;2023-04-25T05:33:09;3.17;;;0.82;;
66112;SDS011;52893;52.870;5.822;2023-04-25T05:35:37;9.82;;;0.80;;
66112;SDS011;52893;52.870;5.822;2023-04-25T05:38:04;12.65;;;1.33;;
66112;SDS011;52893;52.870;5.822;2023-04-25T05:40:56;5.88;;;1.10;;
66112;SDS011;52893;52.870;5.822;2023-04-25T05:43:42;1.75;;;0.63;;
66112;SDS011;52893;52.870;5.822;2023-04-25T05:46:42;3.75;;;0.80;;
66112;SDS011;52893;52.870;5.822;2023-04-25T05:49:12;5.00;;;1.23;;
66112;SDS011;52893;52.870;5.822;2023-04-25T05:51:58;10.73;;;1.27;;
66112;SDS011;52893;52.870;5.822;2023-04-25T05:54:43;11.15;;;1.10;;
66112;SDS011;52893;52.870;5.822;2023-04-25T05:57:18;2.85;;;0.88;;
66112;SDS011;52893;52.870;5.822;2023-04-25T05:59:48;9.05;;;1.20;;
66112;SDS011;52893;52.870;5.822;2023-04-25T06:02:17;9.35;;;1.30;;
66112;SDS011;52893;52.870;5.822;2023-04-25T06:04:44;8.52;;;1.33;;
66112;SDS011;52893;52.870;5.822;2023-04-25T07:29:33;5.70;;;0.80;;
66112;SDS011;52893;52.870;5.822;2023-04-25T07:32:03;6.78;;;0.90;;
66112;SDS011;52893;52.870;5.822;2023-04-25T07:34:30;6.55;;;0.98;;
66112;SDS011;52893;52.870;5.822;2023-04-25T07:36:58;7.03;;;0.80;;
66112;SDS011;52893;52.870;5.822;2023-04-25T07:39:29;1.60;;;0.30;;
66112;SDS011;52893;52.870;5.822;2023-04-25T07:41:57;3.85;;;0.50;;
66112;SDS011;52893;52.870;5.822;2023-04-25T07:44:28;4.57;;;0.77;;
66112;SDS011;52893;52.870;5.822;2023-04-25T07:46:58;11.70;;;2.83;;
66112;SDS011;52893;52.870;5.822;2023-04-25T07:49:26;9.13;;;1.20;;
66112;SDS011;52893;52.870;5.822;2023-04-25T07:51:53;4.63;;;1.00;;
66112;SDS011;52893;52.870;5.822;2023-04-25T07:54:21;8.30;;;1.40;;
66112;SDS011;52893;52.870;5.822;2023-04-25T07:56:59;13.90;;;1.33;;
66112;SDS011;52893;52.870;5.822;2023-04-25T07:59:29;7.10;;;1.50;;
66112;SDS011;52893;52.870;5.822;2023-04-25T08:02:01;9.55;;;1.50;;
66112;SDS011;52893;52.870;5.822;2023-04-25T08:04:28;9.38;;;1.40;;
66112;SDS011;52893;52.870;5.822;2023-04-25T08:07:04;11.38;;;1.55;;
66112;SDS011;52893;52.870;5.822;2023-04-25T08:09:40;6.93;;;1.35;;
66112;SDS011;52893;52.870;5.822;2023-04-25T08:12:13;13.40;;;1.40;;
66112;SDS011;52893;52.870;5.822;2023-04-25T08:14:40;7.32;;;1.42;;
66112;SDS011;52893;52.870;5.822;2023-04-25T08:17:10;14.13;;;1.35;;
66112;SDS011;52893;52.870;5.822;2023-04-25T08:19:40;8.30;;;1.20;;
66112;SDS011;52893;52.870;5.822;2023-04-25T08:22:14;7.32;;;1.15;;
66112;SDS011;52893;52.870;5.822;2023-04-25T08:24:51;7.80;;;1.00;;
66112;SDS011;52893;52.870;5.822;2023-04-25T08:27:19;6.00;;;1.75;;
66112;SDS011;52893;52.870;5.822;2023-04-25T08:29:47;6.03;;;0.95;;
66112;SDS011;52893;52.870;5.822;2023-04-25T08:32:16;8.85;;;0.93;;
66112;SDS011;52893;52.870;5.822;2023-04-25T08:34:57;3.75;;;0.57;;
66112;SDS011;52893;52.870;5.822;2023-04-25T08:37:24;9.48;;;1.27;;
66112;SDS011;52893;52.870;5.822;2023-04-25T08:39:59;6.15;;;0.85;;
66112;SDS011;52893;52.870;5.822;2023-04-25T08:42:44;11.68;;;1.85;;
66112;SDS011;52893;52.870;5.822;2023-04-25T08:45:13;4.25;;;0.93;;
66112;SDS011;52893;52.870;5.822;2023-04-25T08:47:44;10.52;;;1.13;;
66112;SDS011;52893;52.870;5.822;2023-04-25T08:50:14;14.75;;;1.15;;
66112;SDS011;52893;52.870;5.822;2023-04-25T08:52:43;5.38;;;1.15;;
66112;SDS011;52893;52.870;5.822;2023-04-25T08:55:11;9.73;;;1.10;;
66112;SDS011;52893;52.870;5.822;2023-04-25T08:57:40;7.28;;;1.00;;
66112;SDS011;52893;52.870;5.822;2023-04-25T09:00:09;6.47;;;1.27;;
66112;SDS011;52893;52.870;5.822;2023-04-25T09:02:39;5.05;;;0.85;;
66112;SDS011;52893;52.870;5.822;2023-04-25T09:05:09;4.47;;;0.85;;
66112;SDS011;52893;52.870;5.822;2023-04-25T09:07:36;5.97;;;1.20;;
66112;SDS011;52893;52.870;5.822;2023-04-25T09:10:04;3.17;;;0.50;;
66112;SDS011;52893;52.870;5.822;2023-04-25T09:12:36;7.90;;;1.20;;
66112;SDS011;52893;52.870;5.822;2023-04-25T09:15:07;5.40;;;0.65;;
66112;SDS011;52893;52.870;5.822;2023-04-25T09:17:56;7.65;;;0.80;;
66112;SDS011;52893;52.870;5.822;2023-04-25T09:20:28;6.63;;;0.90;;
66112;SDS011;52893;52.870;5.822;2023-04-25T09:23:02;5.85;;;0.80;;
66112;SDS011;52893;52.870;5.822;2023-04-25T09:25:35;7.43;;;0.82;;
66112;SDS011;52893;52.870;5.822;2023-04-25T09:30:33;4.15;;;1.20;;
66112;SDS011;52893;52.870;5.822;2023-04-25T09:33:20;7.40;;;1.00;;
66112;SDS011;52893;52.870;5.822;2023-04-25T09:36:01;5.60;;;0.80;;
66112;SDS011;52893;52.870;5.822;2023-04-25T09:38:47;5.60;;;1.27;;
66112;SDS011;52893;52.870;5.822;2023-04-25T09:41:22;7.57;;;0.82;;
66112;SDS011;52893;52.870;5.822;2023-04-25T09:43:50;4.22;;;0.80;;
66112;SDS011;52893;52.870;5.822;2023-04-25T09:46:18;5.78;;;1.00;;
66112;SDS011;52893;52.870;5.822;2023-04-25T09:51:27;6.43;;;0.93;;
66112;SDS011;52893;52.870;5.822;2023-04-25T09:53:57;8.43;;;1.75;;
66112;SDS011;52893;52.870;5.822;2023-04-25T09:56:43;5.93;;;1.10;;
66112;SDS011;52893;52.870;5.822;2023-04-25T09:59:13;7.40;;;1.00;;
66112;SDS011;52893;52.870;5.822;2023-04-25T10:01:41;4.18;;;0.90;;
66112;SDS011;52893;52.870;5.822;2023-04-25T10:04:22;5.32;;;1.35;;
66112;SDS011;52893;52.870;5.822;2023-04-25T10:06:59;7.50;;;1.17;;
66112;SDS011;52893;52.870;5.822;2023-04-25T10:09:26;8.40;;;1.70;;
66112;SDS011;52893;52.870;5.822;2023-04-25T10:11:57;6.18;;;1.73;;
66112;SDS011;52893;52.870;5.822;2023-04-25T10:14:25;11.05;;;1.45;;
66112;SDS011;52893;52.870;5.822;2023-04-25T10:16:53;5.70;;;1.38;;
66112;SDS011;52893;52.870;5.822;2023-04-25T10:19:21;9.55;;;1.27;;
66112;SDS011;52893;52.870;5.822;2023-04-25T10:21:50;5.38;;;1.02;;
66112;SDS011;52893;52.870;5.822;2023-04-25T10:24:20;7.13;;;1.83;;
66112;SDS011;52893;52.870;5.822;2023-04-25T10:26:48;12.25;;;1.58;;
66112;SDS011;52893;52.870;5.822;2023-04-25T10:29:21;9.20;;;1.00;;
66112;SDS011;52893;52.870;5.822;2023-04-25T10:31:49;6.22;;;0.85;;
66112;SDS011;52893;52.870;5.822;2023-04-25T10:34:16;7.80;;;0.95;;
66112;SDS011;52893;52.870;5.822;2023-04-25T10:36:48;5.28;;;1.10;;
66112;SDS011;52893;52.870;5.822;2023-04-25T10:39:22;7.70;;;1.33;;
66112;SDS011;52893;52.870;5.822;2023-04-25T10:41:55;5.68;;;0.95;;
66112;SDS011;52893;52.870;5.822;2023-04-25T10:46:54;3.25;;;0.90;;
66112;SDS011;52893;52.870;5.822;2023-04-25T10:49:28;9.70;;;1.45;;
66112;SDS011;52893;52.870;5.822;2023-04-25T10:54:54;5.25;;;0.95;;
66112;SDS011;52893;52.870;5.822;2023-04-25T10:57:32;12.85;;;1.17;;
66112;SDS011;52893;52.870;5.822;2023-04-25T11:00:10;3.15;;;1.30;;
66112;SDS011;52893;52.870;5.822;2023-04-25T11:02:41;4.47;;;0.98;;
66112;SDS011;52893;52.870;5.822;2023-04-25T11:05:10;4.82;;;0.80;;
66112;SDS011;52893;52.870;5.822;2023-04-25T11:07:49;2.05;;;0.65;;
66112;SDS011;52893;52.870;5.822;2023-04-25T11:10:19;7.25;;;0.77;;
66112;SDS011;52893;52.870;5.822;2023-04-25T11:12:46;6.82;;;0.70;;
66112;SDS011;52893;52.870;5.822;2023-04-25T11:15:14;2.72;;;0.77;;
66112;SDS011;52893;52.870;5.822;2023-04-25T11:17:41;10.05;;;1.25;;
66112;SDS011;52893;52.870;5.822;2023-04-25T11:20:10;4.53;;;0.63;;
66112;SDS011;52893;52.870;5.822;2023-04-25T11:22:39;4.07;;;0.70;;
66112;SDS011;52893;52.870;5.822;2023-04-25T11:25:08;3.55;;;0.73;;
66112;SDS011;52893;52.870;5.822;2023-04-25T11:27:49;2.25;;;0.50;;
66112;SDS011;52893;52.870;5.822;2023-04-25T11:30:17;3.80;;;0.80;;
66112;SDS011;52893;52.870;5.822;2023-04-25T11:32:46;1.23;;;0.68;;
66112;SDS011;52893;52.870;5.822;2023-04-25T11:35:13;3.05;;;0.65;;
66112;SDS011;52893;52.870;5.822;2023-04-25T11:37:41;10.02;;;0.82;;
66112;SDS011;52893;52.870;5.822;2023-04-25T11:40:09;6.13;;;0.75;;
66112;SDS011;52893;52.870;5.822;2023-04-25T11:42:39;3.10;;;0.77;;
66112;SDS011;52893;52.870;5.822;2023-04-25T11:47:37;6.45;;;0.82;;
66112;SDS011;52893;52.870;5.822;2023-04-25T11:50:05;5.13;;;0.95;;
66112;SDS011;52893;52.870;5.822;2023-04-25T11:52:41;1.90;;;0.70;;
66112;SDS011;52893;52.870;5.822;2023-04-25T11:55:09;2.08;;;0.70;;
66112;SDS011;52893;52.870;5.822;2023-04-25T11:57:41;4.03;;;0.50;;
66112;SDS011;52893;52.870;5.822;2023-04-25T12:00:10;3.72;;;1.17;;
66112;SDS011;52893;52.870;5.822;2023-04-25T12:02:42;8.68;;;1.13;;
66112;SDS011;52893;52.870;5.822;2023-04-25T12:05:09;2.40;;;0.70;;
66112;SDS011;52893;52.870;5.822;2023-04-25T12:07:38;3.20;;;0.73;;
66112;SDS011;52893;52.870;5.822;2023-04-25T12:10:07;6.70;;;1.00;;
66112;SDS011;52893;52.870;5.822;2023-04-25T12:12:35;9.38;;;1.13;;
66112;SDS011;52893;52.870;5.822;2023-04-25T12:15:12;7.82;;;0.98;;
66112;SDS011;52893;52.870;5.822;2023-04-25T12:17:41;4.85;;;1.13;;
66112;SDS011;52893;52.870;5.822;2023-04-25T12:20:09;3.92;;;1.15;;
66112;SDS011;52893;52.870;5.822;2023-04-25T12:22:40;4.35;;;1.00;;
66112;SDS011;52893;52.870;5.822;2023-04-25T12:25:10;6.43;;;0.88;;
66112;SDS011;52893;52.870;5.822;2023-04-25T12:27:38;5.22;;;0.82;;
66112;SDS011;52893;52.870;5.822;2023-04-25T12:30:08;5.13;;;0.65;;
66112;SDS011;52893;52.870;5.822;2023-04-25T12:32:37;4.30;;;1.00;;
66112;SDS011;52893;52.870;5.822;2023-04-25T12:35:05;5.45;;;0.80;;
66112;SDS011;52893;52.870;5.822;2023-04-25T12:37:33;3.60;;;0.95;;
66112;SDS011;52893;52.870;5.822;2023-04-25T12:40:01;8.05;;;0.75;;
66112;SDS011;52893;52.870;5.822;2023-04-25T12:42:29;6.10;;;0.82;;
66112;SDS011;52893;52.870;5.822;2023-04-25T12:44:57;7.25;;;1.48;;
66112;SDS011;52893;52.870;5.822;2023-04-25T12:47:24;10.68;;;1.02;;
66112;SDS011;52893;52.870;5.822;2023-04-25T12:49:53;5.65;;;0.70;;
66112;SDS011;52893;52.870;5.822;2023-04-25T12:52:20;7.05;;;1.20;;
66112;SDS011;52893;52.870;5.822;2023-04-25T12:54:48;1.42;;;0.50;;
66112;SDS011;52893;52.870;5.822;2023-04-25T12:57:15;2.78;;;0.75;;
66112;SDS011;52893;52.870;5.822;2023-04-25T12:59:42;5.00;;;0.90;;
66112;SDS011;52893;52.870;5.822;2023-04-25T13:02:09;3.33;;;0.60;;
66112;SDS011;52893;52.870;5.822;2023-04-25T13:04:36;0.57;;;0.45;;
66112;SDS011;52893;52.870;5.822;2023-04-25T13:07:05;3.40;;;0.60;;
66112;SDS011;52893;52.870;5.822;2023-04-25T13:09:32;3.55;;;0.40;;
66112;SDS011;52893;52.870;5.822;2023-04-25T13:11:59;4.85;;;0.70;;
66112;SDS011;52893;52.870;5.822;2023-04-25T13:14:27;2.58;;;0.70;;
66112;SDS011;52893;52.870;5.822;2023-04-25T13:16:54;1.75;;;0.50;;
66112;SDS011;52893;52.870;5.822;2023-04-25T13:19:21;2.70;;;1.08;;
66112;SDS011;52893;52.870;5.822;2023-04-25T13:21:48;9.23;;;0.93;;
66112;SDS011;52893;52.870;5.822;2023-04-25T13:24:17;6.28;;;1.13;;
66112;SDS011;52893;52.870;5.822;2023-04-25T13:26:44;6.45;;;0.88;;
66112;SDS011;52893;52.870;5.822;2023-04-25T13:29:11;10.95;;;1.40;;
66112;SDS011;52893;52.870;5.822;2023-04-25T13:31:39;4.68;;;1.33;;
66112;SDS011;52893;52.870;5.822;2023-04-25T13:34:06;5.10;;;1.50;;
66112;SDS011;52893;52.870;5.822;2023-04-25T13:36:33;9.45;;;0.98;;
66112;SDS011;52893;52.870;5.822;2023-04-25T13:39:00;7.07;;;0.85;;
66112;SDS011;52893;52.870;5.822;2023-04-25T13:41:31;6.72;;;0.90;;
66112;SDS011;52893;52.870;5.822;2023-04-25T13:43:58;3.95;;;0.80;;
66112;SDS011;52893;52.870;5.822;2023-04-25T13:46:26;4.57;;;1.10;;
66112;SDS011;52893;52.870;5.822;2023-04-25T13:48:53;6.15;;;1.10;;
66112;SDS011;52893;52.870;5.822;2023-04-25T13:51:20;3.25;;;0.90;;
66112;SDS011;52893;52.870;5.822;2023-04-25T13:53:48;5.05;;;0.82;;
66112;SDS011;52893;52.870;5.822;2023-04-25T13:56:15;8.75;;;0.93;;
66112;SDS011;52893;52.870;5.822;2023-04-25T13:58:44;11.43;;;1.73;;
66112;SDS011;52893;52.870;5.822;2023-04-25T14:01:11;4.70;;;1.05;;
66112;SDS011;52893;52.870;5.822;2023-04-25T14:03:38;5.28;;;0.43;;
66112;SDS011;52893;52.870;5.822;2023-04-25T14:06:07;3.60;;;0.90;;
66112;SDS011;52893;52.870;5.822;2023-04-25T14:08:34;17.90;;;1.98;;
66112;SDS011;52893;52.870;5.822;2023-04-25T14:11:01;7.03;;;1.13;;
66112;SDS011;52893;52.870;5.822;2023-04-25T14:13:29;11.75;;;1.67;;
66112;SDS011;52893;52.870;5.822;2023-04-25T14:16:00;9.20;;;1.17;;
66112;SDS011;52893;52.870;5.822;2023-04-25T14:18:28;5.90;;;1.20;;
66112;SDS011;52893;52.870;5.822;2023-04-25T14:20:56;3.15;;;0.90;;
66112;SDS011;52893;52.870;5.822;2023-04-25T14:23:24;8.60;;;1.63;;
66112;SDS011;52893;52.870;5.822;2023-04-25T14:25:51;6.10;;;1.00;;
66112;SDS011;52893;52.870;5.822;2023-04-25T14:28:18;5.70;;;1.00;;
66112;SDS011;52893;52.870;5.822;2023-04-25T14:30:46;6.78;;;1.10;;
66112;SDS011;52893;52.870;5.822;2023-04-25T14:33:15;5.57;;;0.93;;
66112;SDS011;52893;52.870;5.822;2023-04-25T14:35:42;7.15;;;0.80;;
66112;SDS011;52893;52.870;5.822;2023-04-25T14:38:09;8.45;;;1.60;;
66112;SDS011;52893;52.870;5.822;2023-04-25T14:40:36;12.32;;;1.30;;
66112;SDS011;52893;52.870;5.822;2023-04-25T14:43:03;5.38;;;0.98;;
66112;SDS011;52893;52.870;5.822;2023-04-25T14:45:33;8.75;;;1.50;;
66112;SDS011;52893;52.870;5.822;2023-04-25T14:48:00;1.33;;;0.70;;
66112;SDS011;52893;52.870;5.822;2023-04-25T14:50:29;3.42;;;0.95;;
66112;SDS011;52893;52.870;5.822;2023-04-25T14:52:56;6.90;;;0.98;;
66112;SDS011;52893;52.870;5.822;2023-04-25T14:55:24;6.30;;;0.85;;
66112;SDS011;52893;52.870;5.822;2023-04-25T14:57:52;4.53;;;0.70;;
66112;SDS011;52893;52.870;5.822;2023-04-25T15:00:20;4.85;;;0.90;;
66112;SDS011;52893;52.870;5.822;2023-04-25T15:02:48;2.60;;;0.80;;
66112;SDS011;52893;52.870;5.822;2023-04-25T15:05:15;3.67;;;1.13;;
66112;SDS011;52893;52.870;5.822;2023-04-25T15:07:45;7.38;;;1.00;;
66112;SDS011;52893;52.870;5.822;2023-04-25T15:10:13;13.80;;;0.90;;
66112;SDS011;52893;52.870;5.822;2023-04-25T15:12:41;6.68;;;1.17;;
66112;SDS011;52893;52.870;5.822;2023-04-25T15:15:09;11.07;;;1.33;;
66112;SDS011;52893;52.870;5.822;2023-04-25T15:17:38;5.15;;;1.23;;
66112;SDS011;52893;52.870;5.822;2023-04-25T15:20:06;14.05;;;2.38;;
66112;SDS011;52893;52.870;5.822;2023-04-25T15:22:35;7.25;;;1.48;;
66112;SDS011;52893;52.870;5.822;2023-04-25T15:25:04;5.15;;;0.90;;
66112;SDS011;52893;52.870;5.822;2023-04-25T15:27:33;4.97;;;1.23;;
66112;SDS011;52893;52.870;5.822;2023-04-25T15:30:03;9.60;;;1.52;;
66112;SDS011;52893;52.870;5.822;2023-04-25T15:32:32;17.13;;;4.85;;
66112;SDS011;52893;52.870;5.822;2023-04-25T15:35:02;10.57;;;1.98;;
66112;SDS011;52893;52.870;5.822;2023-04-25T15:37:30;10.18;;;1.92;;
66112;SDS011;52893;52.870;5.822;2023-04-25T15:40:00;15.18;;;1.83;;
66112;SDS011;52893;52.870;5.822;2023-04-25T15:42:30;10.93;;;1.52;;
66112;SDS011;52893;52.870;5.822;2023-04-25T15:44:57;20.52;;;1.98;;
66112;SDS011;52893;52.870;5.822;2023-04-25T15:47:25;7.40;;;1.15;;
66112;SDS011;52893;52.870;5.822;2023-04-25T15:49:52;15.73;;;2.20;;
66112;SDS011;52893;52.870;5.822;2023-04-25T15:52:19;12.52;;;1.85;;
66112;SDS011;52893;52.870;5.822;2023-04-25T15:54:47;9.68;;;1.77;;
66112;SDS011;52893;52.870;5.822;2023-04-25T15:57:14;2.85;;;0.90;;
66112;SDS011;52893;52.870;5.822;2023-04-25T15:59:42;9.55;;;1.25;;
66112;SDS011;52893;52.870;5.822;2023-04-25T16:02:11;8.52;;;1.52;;
66112;SDS011;52893;52.870;5.822;2023-04-25T16:04:39;4.07;;;1.00;;
66112;SDS011;52893;52.870;5.822;2023-04-25T16:07:06;5.85;;;1.50;;
66112;SDS011;52893;52.870;5.822;2023-04-25T16:09:33;12.43;;;1.63;;
66112;SDS011;52893;52.870;5.822;2023-04-25T16:12:02;9.98;;;1.55;;
66112;SDS011;52893;52.870;5.822;2023-04-25T16:14:30;8.77;;;1.20;;
66112;SDS011;52893;52.870;5.822;2023-04-25T16:16:59;10.82;;;1.88;;
66112;SDS011;52893;52.870;5.822;2023-04-25T16:19:26;11.35;;;1.27;;
66112;SDS011;52893;52.870;5.822;2023-04-25T16:21:54;4.57;;;1.30;;
66112;SDS011;52893;52.870;5.822;2023-04-25T16:24:21;9.20;;;1.25;;
66112;SDS011;52893;52.870;5.822;2023-04-25T16:26:49;6.45;;;1.10;;
66112;SDS011;52893;52.870;5.822;2023-04-25T16:29:16;7.80;;;1.10;;
66112;SDS011;52893;52.870;5.822;2023-04-25T16:31:43;7.97;;;1.48;;
66112;SDS011;52893;52.870;5.822;2023-04-25T16:34:13;6.22;;;1.13;;
66112;SDS011;52893;52.870;5.822;2023-04-25T16:36:40;6.85;;;1.38;;
66112;SDS011;52893;52.870;5.822;2023-04-25T16:39:08;11.90;;;1.40;;
66112;SDS011;52893;52.870;5.822;2023-04-25T16:41:35;6.13;;;1.25;;